createdAt,value
2023-04-16T18:03:18.328Z,11.50
2023-04-16T18:05:53.965Z,11.83
2023-04-16T18:11:15.932Z,11.60
2023-04-16T18:13:49.944Z,12.00
2023-04-16T18:19:01.194Z,11.23
2023-04-16T18:21:48.025Z,11.10
2023-04-16T18:24:28.954Z,11.25
2023-04-16T18:27:05.345Z,10.67
2023-04-16T18:29:40.948Z,11.10
2023-04-16T18:32:15.121Z,10.75
2023-04-16T18:35:10.594Z,12.02
2023-04-16T18:37:53.612Z,11.70
2023-04-16T18:40:29.566Z,12.15
2023-04-16T18:43:07.444Z,11.90
2023-04-16T18:45:42.238Z,12.13
2023-04-16T18:48:16.453Z,12.15
2023-04-16T18:50:52.094Z,12.15
2023-04-16T18:53:26.526Z,12.55
2023-04-16T18:56:03.785Z,11.40
2023-04-16T18:58:44.577Z,12.95
2023-04-16T19:01:26.194Z,11.47
2023-04-16T19:04:01.800Z,12.35
2023-04-16T19:06:39.251Z,12.40
2023-04-16T19:09:16.466Z,11.73
2023-04-16T19:11:56.890Z,11.75
2023-04-16T19:14:31.172Z,12.65
2023-04-16T19:17:15.264Z,12.02
2023-04-16T19:22:24.383Z,11.60
2023-04-16T19:25:00.828Z,11.50
2023-04-16T19:27:44.198Z,10.90
2023-04-16T19:30:21.630Z,11.70
2023-04-16T19:32:58.184Z,10.90
2023-04-16T19:35:33.827Z,11.23
2023-04-16T19:38:11.454Z,11.10
2023-04-16T19:40:49.295Z,11.07
2023-04-16T19:43:32.415Z,10.68
2023-04-16T19:46:07.175Z,10.13
2023-04-16T19:48:43.178Z,10.25
2023-04-16T19:51:20.928Z,10.10
2023-04-16T19:53:55.234Z,9.35
2023-04-16T19:56:31.425Z,10.10
2023-04-16T19:59:11.414Z,9.55
2023-04-16T20:01:46.208Z,9.00
2023-04-16T20:04:21.198Z,9.32
2023-04-16T20:06:56.680Z,8.10
2023-04-16T20:09:32.026Z,9.15
2023-04-16T20:12:07.505Z,8.80
2023-04-16T20:14:46.351Z,9.00
2023-04-16T20:17:21.313Z,7.90
2023-04-16T20:20:01.283Z,8.32
2023-04-16T20:22:36.201Z,8.52
2023-04-16T20:25:11.699Z,8.70
2023-04-16T20:27:46.303Z,8.82
2023-04-16T20:30:36.749Z,8.80
2023-04-16T20:33:13.924Z,8.45
2023-04-16T20:35:51.771Z,8.63
2023-04-16T20:38:37.352Z,9.27
2023-04-16T20:41:14.827Z,10.55
2023-04-16T20:43:56.305Z,9.65
2023-04-16T20:46:36.324Z,10.02
2023-04-16T20:49:14.408Z,9.05
2023-04-16T20:51:51.696Z,9.32
2023-04-16T20:54:27.391Z,10.43
2023-04-16T20:57:05.069Z,9.65
2023-04-16T20:59:43.986Z,10.93
2023-04-16T21:02:18.691Z,10.25
2023-04-16T21:04:54.297Z,10.77
2023-04-16T21:07:29.131Z,11.15
2023-04-16T21:10:04.110Z,11.10
2023-04-16T21:12:38.558Z,11.10
2023-04-16T21:15:13.111Z,11.48
2023-04-16T21:17:49.975Z,10.90
2023-04-16T21:20:29.427Z,11.70
2023-04-16T21:23:05.600Z,12.27
2023-04-16T21:25:41.453Z,12.10
2023-04-16T21:28:17.193Z,12.45
2023-04-16T21:30:54.469Z,13.30
2023-04-16T21:36:10.914Z,11.85
2023-04-16T21:38:47.379Z,14.10
2023-04-16T21:41:21.535Z,12.43
2023-04-16T21:43:57.870Z,12.35
2023-04-16T21:46:34.242Z,13.20
2023-04-16T21:49:09.646Z,12.60
2023-04-16T21:51:47.007Z,14.27
2023-04-16T21:54:33.957Z,13.68
2023-04-16T21:57:09.344Z,13.73
2023-04-16T21:59:45.866Z,14.33
2023-04-16T22:02:21.304Z,14.07
2023-04-16T22:04:57.642Z,14.32
2023-04-16T22:07:33.081Z,13.75
2023-04-16T22:10:07.996Z,14.20
2023-04-16T22:12:48.421Z,14.50
2023-04-16T22:15:23.961Z,13.47
2023-04-16T22:17:58.083Z,15.25
2023-04-16T22:20:39.406Z,13.90
2023-04-16T22:23:16.923Z,14.80
2023-04-16T22:25:52.333Z,15.30
2023-04-16T22:28:36.859Z,14.68
2023-04-16T22:34:06.121Z,15.40
2023-04-16T22:36:43.080Z,14.85
2023-04-16T22:39:20.447Z,15.70
2023-04-16T22:41:55.241Z,15.50
2023-04-16T22:44:33.342Z,15.05
2023-04-16T22:47:08.004Z,15.70
2023-04-16T22:49:43.918Z,15.07
2023-04-16T22:52:18.786Z,15.15
2023-04-16T22:54:54.831Z,15.00
2023-04-16T22:57:29.330Z,14.93
2023-04-16T23:00:08.460Z,14.67
2023-04-16T23:02:44.047Z,15.65
2023-04-16T23:05:21.831Z,16.00
2023-04-16T23:07:57.961Z,15.90
2023-04-16T23:10:32.984Z,16.40
2023-04-16T23:13:08.685Z,15.45
2023-04-16T23:15:47.000Z,15.40
2023-04-16T23:18:22.881Z,15.93
2023-04-16T23:20:57.728Z,16.27
2023-04-16T23:23:36.790Z,15.90
2023-04-16T23:26:14.749Z,16.55
2023-04-16T23:35:02.930Z,16.20
2023-04-16T23:37:43.537Z,16.77
2023-04-16T23:40:19.278Z,16.40
2023-04-16T23:42:54.988Z,16.95
2023-04-16T23:45:43.261Z,16.90
2023-04-16T23:51:17.332Z,16.50
2023-04-16T23:53:53.258Z,16.23
2023-04-16T23:56:28.880Z,16.20
2023-04-16T23:59:06.997Z,16.95
